TimeEDT,TemperatureF,Dew PointF,Humidity,Sea Level PressureIn,VisibilityMPH,Wind Direction,Wind SpeedMPH,Gust SpeedMPH,PrecipitationIn,Events,Conditions,WindDirDegrees,DateUTC
12:54 AM,72.0,66.0,81,29.89,10.0,West,8.1,-,N/A,,Clear,280,2013-08-02 04:54:00
1:54 AM,71.1,64.9,81,29.87,10.0,Calm,Calm,-,N/A,,Clear,0,2013-08-02 05:54:00
2:54 AM,71.1,64.9,81,29.88,10.0,SW,5.8,-,N/A,,Clear,220,2013-08-02 06:54:00
3:54 AM,72.0,66.0,81,29.89,10.0,West,6.9,-,N/A,,Clear,260,2013-08-02 07:54:00
4:54 AM,71.1,64.9,81,29.90,10.0,WNW,3.5,-,N/A,,Clear,290,2013-08-02 08:54:00
5:54 AM,70.0,64.0,81,29.91,8.0,Calm,Calm,-,N/A,,Clear,0,2013-08-02 09:54:00
6:54 AM,70.0,64.0,81,29.93,7.0,Calm,Calm,-,N/A,,Clear,0,2013-08-02 10:54:00
7:54 AM,75.9,68.0,76,29.95,10.0,WNW,3.5,-,N/A,,Clear,300,2013-08-02 11:54:00
8:54 AM,79.0,68.0,69,29.97,10.0,West,3.5,-,N/A,,Clear,260,2013-08-02 12:54:00
9:54 AM,82.9,66.9,58,29.98,10.0,NE,3.5,-,N/A,,Clear,40,2013-08-02 13:54:00
10:54 AM,84.9,66.9,55,29.99,10.0,NW,4.6,-,N/A,,Clear,320,2013-08-02 14:54:00
11:54 AM,87.1,66.0,49,29.98,10.0,Calm,Calm,-,N/A,,Clear,0,2013-08-02 15:54:00
12:54 PM,88.0,64.9,46,29.99,10.0,East,4.6,-,N/A,,Clear,100,2013-08-02 16:54:00
1:54 PM,88.0,64.0,45,29.99,10.0,SW,9.2,-,N/A,,Clear,220,2013-08-02 17:54:00
2:54 PM,88.0,66.9,49,29.98,10.0,WSW,5.8,-,N/A,,Clear,240,2013-08-02 18:54:00
3:54 PM,89.1,66.9,48,29.96,10.0,Variable,4.6,-,N/A,,Clear,0,2013-08-02 19:54:00
4:54 PM,90.0,66.9,46,29.96,10.0,WSW,6.9,-,N/A,,Clear,240,2013-08-02 20:54:00
5:54 PM,89.1,66.9,48,29.96,10.0,WSW,6.9,-,N/A,,Clear,250,2013-08-02 21:54:00
6:54 PM,88.0,68.0,51,29.95,10.0,WSW,5.8,-,N/A,,Clear,240,2013-08-02 22:54:00
7:54 PM,86.0,66.9,53,29.96,10.0,West,4.6,-,N/A,,Clear,270,2013-08-02 23:54:00
8:54 PM,79.0,71.1,77,29.97,10.0,Calm,Calm,-,N/A,,Clear,0,2013-08-03 00:54:00
9:54 PM,78.1,71.1,79,29.99,10.0,Calm,Calm,-,N/A,,Clear,0,2013-08-03 01:54:00
10:54 PM,77.0,70.0,79,29.99,10.0,Calm,Calm,-,N/A,,Clear,0,2013-08-03 02:54:00
11:54 PM,79.0,69.1,72,29.99,10.0,SW,6.9,-,N/A,,Partly Cloudy,220,2013-08-03 03:54:00